createdAt,value
2018-01-23T00:02:04.017Z,5.63
2018-01-23T00:04:31.779Z,6.13
2018-01-23T00:06:59.402Z,5.97
2018-01-23T00:09:26.990Z,5.47
2018-01-23T00:11:54.600Z,6.70
2018-01-23T00:14:22.988Z,5.83
2018-01-23T00:16:51.334Z,6.63
2018-01-23T00:19:19.029Z,6.37
2018-01-23T00:21:46.707Z,5.43
2018-01-23T00:24:14.356Z,7.00
2018-01-23T00:26:42.742Z,7.00
2018-01-23T00:29:11.247Z,7.67
2018-01-23T00:31:39.845Z,8.47
2018-01-23T00:34:07.586Z,7.17
2018-01-23T00:36:40.430Z,6.93
2018-01-23T00:39:08.417Z,5.90
2018-01-23T00:41:36.849Z,5.90
2018-01-23T00:44:04.527Z,6.17
2018-01-23T00:46:33.732Z,5.27
2018-01-23T00:49:01.366Z,5.87
2018-01-23T00:51:29.759Z,6.97
2018-01-23T00:53:57.340Z,7.03
2018-01-23T00:56:24.937Z,6.50
2018-01-23T00:58:52.943Z,8.13
2018-01-23T01:01:21.123Z,6.43
2018-01-23T01:03:48.972Z,6.53
2018-01-23T01:06:16.537Z,6.37
2018-01-23T01:08:44.337Z,6.53
2018-01-23T01:11:12.767Z,6.43
2018-01-23T01:13:40.410Z,6.40
2018-01-23T01:16:08.795Z,5.90
2018-01-23T01:18:37.178Z,7.13
2018-01-23T01:21:04.916Z,7.13
2018-01-23T01:23:32.503Z,7.43
2018-01-23T01:26:00.150Z,8.37
2018-01-23T01:28:28.501Z,7.00
2018-01-23T01:30:59.721Z,7.03
2018-01-23T01:33:27.786Z,6.87
2018-01-23T01:35:55.398Z,7.17
2018-01-23T01:38:25.835Z,7.17
2018-01-23T01:40:53.393Z,7.10
2018-01-23T01:43:20.992Z,8.07
2018-01-23T01:45:51.164Z,7.80
2018-01-23T01:48:19.051Z,7.87
2018-01-23T01:50:48.534Z,7.50
2018-01-23T01:53:16.316Z,7.67
2018-01-23T01:55:51.035Z,7.17
2018-01-23T01:58:18.933Z,7.67
2018-01-23T02:00:46.570Z,8.33
2018-01-23T02:03:14.181Z,8.00
2018-01-23T02:05:41.824Z,8.60
2018-01-23T02:08:09.453Z,8.40
2018-01-23T02:10:37.205Z,9.40
2018-01-23T02:13:04.806Z,9.63
2018-01-23T02:15:32.467Z,9.50
2018-01-23T02:18:01.242Z,9.57
2018-01-23T02:20:28.812Z,9.60
2018-01-23T02:22:57.186Z,8.37
2018-01-23T02:25:25.500Z,8.20
2018-01-23T02:27:53.221Z,8.20
2018-01-23T02:30:21.140Z,8.33
2018-01-23T02:32:48.857Z,8.73
2018-01-23T02:35:17.310Z,9.60
2018-01-23T02:37:44.882Z,8.93
2018-01-23T02:40:12.444Z,10.90
2018-01-23T02:42:40.208Z,9.57
2018-01-23T02:45:08.622Z,9.00
2018-01-23T02:47:36.216Z,8.10
2018-01-23T02:50:03.801Z,9.27
2018-01-23T02:52:31.586Z,7.97
2018-01-23T02:55:04.847Z,9.07
2018-01-23T02:57:32.419Z,8.07
2018-01-23T03:00:00.023Z,9.63
2018-01-23T03:02:28.036Z,9.27
2018-01-23T03:04:55.695Z,8.27
2018-01-23T03:07:23.387Z,9.23
2018-01-23T03:09:55.068Z,8.97
2018-01-23T03:12:22.705Z,9.50
2018-01-23T03:14:50.412Z,8.90
2018-01-23T03:17:18.629Z,8.73
2018-01-23T03:19:46.281Z,9.33
2018-01-23T03:22:14.129Z,8.67
2018-01-23T03:24:42.203Z,8.87
2018-01-23T03:27:12.204Z,8.90
2018-01-23T03:29:40.099Z,9.37
2018-01-23T03:32:08.222Z,9.87
2018-01-23T03:34:36.153Z,9.00
2018-01-23T03:37:03.811Z,9.67
2018-01-23T03:39:32.628Z,8.60
2018-01-23T03:42:01.552Z,8.93
2018-01-23T03:44:30.109Z,9.77
2018-01-23T03:46:58.870Z,8.80
2018-01-23T03:49:28.194Z,8.40
2018-01-23T03:51:56.003Z,9.30
2018-01-23T03:54:25.652Z,8.03
2018-01-23T03:56:55.174Z,8.13
2018-01-23T03:59:23.182Z,8.73
2018-01-23T04:01:52.060Z,10.03
2018-01-23T04:04:20.625Z,7.53
2018-01-23T04:06:48.236Z,8.37
2018-01-23T04:09:15.872Z,9.10
2018-01-23T04:11:45.056Z,7.80
2018-01-23T04:14:12.684Z,8.07
2018-01-23T04:16:42.146Z,9.13
2018-01-23T04:19:09.913Z,8.47
2018-01-23T04:21:39.016Z,9.70
2018-01-23T04:24:10.147Z,10.10
2018-01-23T04:26:37.850Z,10.23
2018-01-23T04:29:05.600Z,9.33
2018-01-23T04:31:33.236Z,8.53
2018-01-23T04:34:01.714Z,9.80
2018-01-23T04:36:29.899Z,9.50
2018-01-23T04:38:58.289Z,11.07
2018-01-23T04:41:25.898Z,9.57
2018-01-23T04:43:54.687Z,8.67
2018-01-23T04:46:22.282Z,9.60
2018-01-23T04:48:50.730Z,8.60
2018-01-23T04:51:18.671Z,9.17
2018-01-23T04:53:46.360Z,9.40
2018-01-23T04:56:14.161Z,8.93
2018-01-23T04:58:41.775Z,9.33
2018-01-23T05:01:09.354Z,10.20
2018-01-23T05:03:36.940Z,8.67
2018-01-23T05:06:06.614Z,9.87
2018-01-23T05:08:34.208Z,9.83
2018-01-23T05:11:01.805Z,9.70
2018-01-23T05:13:29.634Z,8.97
2018-01-23T05:15:57.370Z,9.87
2018-01-23T05:18:25.065Z,8.73
2018-01-23T05:20:53.381Z,9.47
2018-01-23T05:23:20.970Z,9.53
2018-01-23T05:25:48.590Z,9.67
2018-01-23T05:28:16.164Z,8.70
2018-01-23T05:30:43.811Z,8.70
2018-01-23T05:33:12.399Z,10.23
2018-01-23T05:35:39.976Z,8.10
2018-01-23T05:38:07.705Z,9.37
2018-01-23T05:40:35.521Z,10.43
2018-01-23T05:43:03.075Z,9.60
2018-01-23T05:45:30.722Z,8.70
2018-01-23T05:47:58.317Z,10.00
2018-01-23T05:50:25.929Z,9.87
2018-01-23T05:52:53.588Z,9.53
2018-01-23T05:55:21.164Z,10.27
2018-01-23T05:57:49.040Z,10.10
2018-01-23T06:00:16.627Z,10.83
2018-01-23T06:02:44.355Z,10.30
2018-01-23T06:05:12.017Z,9.67
2018-01-23T06:07:39.779Z,9.07
2018-01-23T06:10:07.362Z,9.87
2018-01-23T06:12:35.878Z,9.10
2018-01-23T06:15:03.487Z,8.17
2018-01-23T06:17:31.069Z,9.87
2018-01-23T06:19:58.627Z,9.00
2018-01-23T06:22:26.233Z,8.00
2018-01-23T06:24:53.913Z,8.73
2018-01-23T06:27:21.561Z,8.40
2018-01-23T06:29:49.893Z,8.67
2018-01-23T06:32:17.514Z,7.77
2018-01-23T06:34:45.119Z,9.83
2018-01-23T06:37:12.678Z,9.53
2018-01-23T06:39:40.282Z,8.57
2018-01-23T06:42:07.892Z,9.73
2018-01-23T06:44:38.687Z,8.97
2018-01-23T06:47:07.052Z,8.37
2018-01-23T06:49:34.628Z,9.30
2018-01-23T06:52:02.217Z,9.60
2018-01-23T06:57:03.671Z,11.67
2018-01-23T06:59:31.235Z,11.47
2018-01-23T07:01:58.796Z,10.13
2018-01-23T07:04:26.394Z,10.97
2018-01-23T07:06:53.973Z,11.53
2018-01-23T07:09:21.578Z,11.70
2018-01-23T07:11:49.135Z,12.50
2018-01-23T07:14:16.692Z,11.87
2018-01-23T07:16:45.055Z,12.50
2018-01-23T07:19:12.667Z,11.30
2018-01-23T07:21:40.295Z,11.03
2018-01-23T07:24:08.055Z,11.30
2018-01-23T07:26:35.654Z,10.27
2018-01-23T07:29:03.249Z,10.77
2018-01-23T07:31:30.809Z,10.80
2018-01-23T07:33:58.374Z,10.23
2018-01-23T07:36:25.975Z,11.83
2018-01-23T07:38:53.632Z,10.40
2018-01-23T07:41:21.225Z,10.50
2018-01-23T07:43:48.791Z,11.60
2018-01-23T07:46:16.449Z,10.67
2018-01-23T07:48:44.251Z,11.00
2018-01-23T07:51:11.815Z,12.83
2018-01-23T07:53:39.380Z,10.80
2018-01-23T07:56:06.982Z,11.53
2018-01-23T07:58:34.544Z,11.60
2018-01-23T08:01:02.167Z,10.50
2018-01-23T08:03:30.534Z,11.13
2018-01-23T08:05:58.113Z,11.30
2018-01-23T08:08:25.702Z,12.23
2018-01-23T08:10:53.265Z,12.17
2018-01-23T08:13:20.870Z,12.90
2018-01-23T08:15:48.437Z,12.23
2018-01-23T08:18:16.145Z,13.87
2018-01-23T08:20:43.750Z,13.40
2018-01-23T08:23:11.304Z,13.43
2018-01-23T08:25:38.922Z,14.40
2018-01-23T08:28:06.528Z,13.40
2018-01-23T08:30:34.175Z,14.57
2018-01-23T08:33:01.729Z,14.80
2018-01-23T08:35:29.284Z,14.17
2018-01-23T08:37:56.881Z,14.57
2018-01-23T08:40:24.440Z,15.00
2018-01-23T08:42:52.254Z,15.50
2018-01-23T08:45:20.114Z,14.97
2018-01-23T08:47:47.954Z,14.73
2018-01-23T08:50:15.551Z,14.93
2018-01-23T08:52:43.144Z,15.27
2018-01-23T08:55:10.705Z,16.13
2018-01-23T08:57:38.343Z,14.23
2018-01-23T09:00:05.936Z,15.17
2018-01-23T09:02:33.514Z,14.97
2018-01-23T09:05:01.117Z,13.50
2018-01-23T09:07:28.729Z,14.20
2018-01-23T09:09:56.325Z,16.57
2018-01-23T09:12:23.911Z,14.30
2018-01-23T09:14:51.700Z,14.27
2018-01-23T09:17:19.260Z,13.43
2018-01-23T09:19:46.818Z,14.27
2018-01-23T09:22:14.412Z,14.27
2018-01-23T09:24:42.026Z,13.63
2018-01-23T09:27:09.645Z,12.27
2018-01-23T09:29:37.970Z,12.70
2018-01-23T09:32:05.528Z,12.73
2018-01-23T09:34:33.123Z,14.30
2018-01-23T09:37:00.737Z,12.57
2018-01-23T09:39:28.324Z,12.67
2018-01-23T09:41:55.884Z,11.97
2018-01-23T09:44:23.491Z,11.03
2018-01-23T09:46:51.086Z,11.03
2018-01-23T09:49:18.710Z,11.40
2018-01-23T09:51:46.275Z,10.80
2018-01-23T09:54:13.828Z,10.30
2018-01-23T09:56:42.192Z,10.17
2018-01-23T09:59:09.752Z,10.73
2018-01-23T10:01:37.345Z,11.03
2018-01-23T10:04:05.749Z,11.43
2018-01-23T10:06:33.350Z,10.37
2018-01-23T10:09:01.000Z,10.27
2018-01-23T10:11:28.667Z,9.13
2018-01-23T10:13:56.224Z,9.53
2018-01-23T10:16:23.899Z,11.40
2018-01-23T10:18:51.502Z,11.07
2018-01-23T10:21:19.061Z,11.13
2018-01-23T10:23:46.620Z,11.40
2018-01-23T10:26:14.220Z,12.03
2018-01-23T10:28:41.786Z,11.70
2018-01-23T10:31:09.393Z,11.30
2018-01-23T10:33:37.758Z,12.43
2018-01-23T10:36:06.091Z,11.53
2018-01-23T10:38:33.698Z,11.10
2018-01-23T10:41:01.278Z,11.97
2018-01-23T10:43:28.835Z,12.27
2018-01-23T10:45:57.205Z,12.63
2018-01-23T10:48:25.563Z,12.87
2018-01-23T10:50:53.184Z,12.33
2018-01-23T10:53:20.784Z,13.37
2018-01-23T10:55:48.348Z,14.00
2018-01-23T10:58:15.945Z,14.53
2018-01-23T11:00:49.269Z,14.00
2018-01-23T11:03:16.847Z,14.40
2018-01-23T11:05:44.440Z,15.47
2018-01-23T11:08:12.007Z,14.33
2018-01-23T11:10:40.365Z,14.83
2018-01-23T11:13:08.034Z,14.60
2018-01-23T11:15:35.635Z,14.37
2018-01-23T11:18:03.280Z,13.43
2018-01-23T11:20:30.985Z,14.07
2018-01-23T11:22:58.609Z,14.87
2018-01-23T11:25:26.177Z,14.67
2018-01-23T11:27:53.770Z,14.60
2018-01-23T11:30:21.373Z,14.83
2018-01-23T11:32:48.928Z,13.87
2018-01-23T11:35:16.484Z,13.03
2018-01-23T11:37:44.085Z,14.30
2018-01-23T11:40:11.700Z,14.20
2018-01-23T11:42:39.296Z,14.50
2018-01-23T11:45:06.942Z,14.67
2018-01-23T11:47:35.272Z,14.63
2018-01-23T11:50:02.836Z,14.07
2018-01-23T11:52:30.460Z,14.87
2018-01-23T11:54:58.785Z,13.93
2018-01-23T11:57:26.417Z,13.23
2018-01-23T11:59:53.987Z,13.57
2018-01-23T12:02:21.602Z,13.57
2018-01-23T12:04:50.325Z,13.50
2018-01-23T12:07:17.880Z,13.80
2018-01-23T12:09:45.545Z,13.03
2018-01-23T12:12:13.107Z,13.93
2018-01-23T12:14:40.723Z,13.57
2018-01-23T12:17:08.287Z,14.77
2018-01-23T12:19:35.897Z,12.70
2018-01-23T12:22:03.469Z,13.20
2018-01-23T12:24:31.072Z,13.30
2018-01-23T12:26:58.625Z,13.27
2018-01-23T12:29:26.193Z,13.13
2018-01-23T12:31:53.921Z,12.87
2018-01-23T12:34:21.491Z,14.03
2018-01-23T12:36:49.050Z,13.77
2018-01-23T12:39:16.713Z,13.13
2018-01-23T12:41:44.296Z,12.80
2018-01-23T12:44:11.854Z,13.27
2018-01-23T12:46:39.449Z,12.73
2018-01-23T12:49:08.516Z,13.03
2018-01-23T12:51:36.140Z,12.37
2018-01-23T12:54:03.773Z,12.33
2018-01-23T12:56:31.368Z,11.50
2018-01-23T12:58:59.073Z,10.67
2018-01-23T13:01:26.640Z,11.83
2018-01-23T13:03:54.290Z,11.87
2018-01-23T13:06:21.886Z,10.57
2018-01-23T13:08:49.502Z,11.37
2018-01-23T13:11:18.152Z,10.80
2018-01-23T13:13:46.195Z,10.80
2018-01-23T13:16:15.115Z,10.33
2018-01-23T13:18:42.713Z,11.03
2018-01-23T13:21:10.283Z,10.10
2018-01-23T13:23:38.067Z,9.83
2018-01-23T13:26:05.689Z,10.53
2018-01-23T13:28:33.303Z,9.87
2018-01-23T13:31:00.987Z,10.73
2018-01-23T13:33:28.645Z,9.67
2018-01-23T13:35:56.260Z,8.53
2018-01-23T13:38:23.818Z,8.73
2018-01-23T13:40:53.071Z,9.00
2018-01-23T13:43:21.008Z,9.07
2018-01-23T13:45:48.594Z,9.03
2018-01-23T13:48:16.455Z,9.30
2018-01-23T13:50:44.685Z,7.77
2018-01-23T13:53:12.242Z,7.13
2018-01-23T13:55:40.198Z,8.17
2018-01-23T13:58:08.614Z,7.70
2018-01-23T14:00:38.748Z,7.57
2018-01-23T14:03:06.793Z,7.53
2018-01-23T14:05:36.505Z,7.83
2018-01-23T14:08:04.574Z,7.87
2018-01-23T14:10:32.681Z,7.33
2018-01-23T14:13:01.077Z,7.67
2018-01-23T14:15:28.670Z,7.87
2018-01-23T14:17:56.228Z,7.80
2018-01-23T14:20:24.136Z,7.93
2018-01-23T14:22:52.452Z,7.03
2018-01-23T14:25:20.045Z,8.40
2018-01-23T14:27:47.854Z,8.30
2018-01-23T14:30:15.450Z,7.57
2018-01-23T14:32:43.027Z,7.67
2018-01-23T14:35:10.636Z,6.90
2018-01-23T14:37:39.378Z,7.30
2018-01-23T14:40:06.946Z,7.63
2018-01-23T14:42:34.553Z,7.03
2018-01-23T14:45:02.181Z,7.10
2018-01-23T14:47:29.791Z,7.63
2018-01-23T14:49:57.349Z,7.90
2018-01-23T14:52:24.976Z,8.13
2018-01-23T14:54:52.534Z,7.90
2018-01-23T14:57:20.878Z,8.17
2018-01-23T14:59:49.782Z,8.13
2018-01-23T15:02:17.341Z,8.90
2018-01-23T15:04:44.944Z,8.70
2018-01-23T15:07:12.556Z,9.13
2018-01-23T15:09:40.109Z,8.50
2018-01-23T15:12:07.666Z,8.83
2018-01-23T15:14:35.261Z,8.23
2018-01-23T15:17:02.852Z,8.00
2018-01-23T15:19:30.453Z,8.43
2018-01-23T15:21:58.176Z,8.13
2018-01-23T15:24:25.784Z,8.57
2018-01-23T15:26:53.408Z,7.47
2018-01-23T15:29:20.977Z,7.50
2018-01-23T15:31:48.576Z,8.17
2018-01-23T15:34:16.136Z,8.00
2018-01-23T15:36:43.743Z,7.40
2018-01-23T15:39:11.306Z,7.90
2018-01-23T15:41:38.896Z,9.03
2018-01-23T15:44:06.444Z,9.40
2018-01-23T15:46:34.037Z,9.53
2018-01-23T15:49:01.602Z,9.87
2018-01-23T15:51:29.200Z,8.33
2018-01-23T15:53:56.752Z,8.37
2018-01-23T15:56:25.110Z,8.87
2018-01-23T15:58:52.660Z,9.73
2018-01-23T16:01:20.248Z,8.90
2018-01-23T16:03:47.841Z,9.23
2018-01-23T16:06:15.401Z,8.70
2018-01-23T16:08:43.011Z,8.93
2018-01-23T16:11:10.560Z,8.07
2018-01-23T16:13:38.123Z,8.57
2018-01-23T16:16:05.718Z,8.67
2018-01-23T16:18:34.076Z,7.30
2018-01-23T16:21:01.683Z,9.87
2018-01-23T16:23:29.264Z,8.93
2018-01-23T16:25:56.867Z,11.33
2018-01-23T16:28:24.464Z,10.10
2018-01-23T16:30:52.080Z,12.53
2018-01-23T16:33:19.641Z,17.50
2018-01-23T16:35:47.248Z,12.57
2018-01-23T16:38:14.857Z,10.53
2018-01-23T16:40:42.431Z,10.53
2018-01-23T16:43:09.989Z,10.23
2018-01-23T16:45:37.600Z,10.53
2018-01-23T16:48:05.171Z,10.87
2018-01-23T16:50:32.765Z,9.90
2018-01-23T16:53:00.369Z,10.50
2018-01-23T16:55:28.053Z,10.23
2018-01-23T16:57:56.273Z,10.90
2018-01-23T17:00:23.904Z,10.33
2018-01-23T17:02:51.546Z,9.63
2018-01-23T17:05:19.159Z,9.60
2018-01-23T17:07:46.793Z,10.43
2018-01-23T17:10:14.431Z,10.57
2018-01-23T17:12:42.050Z,10.10
2018-01-23T17:15:09.609Z,10.17
2018-01-23T17:17:37.186Z,10.90
2018-01-23T17:20:04.849Z,11.43
2018-01-23T17:22:33.172Z,10.70
2018-01-23T17:25:00.764Z,11.53
2018-01-23T17:27:28.326Z,10.87
2018-01-23T17:29:55.943Z,11.73
2018-01-23T17:32:23.519Z,13.40
2018-01-23T17:34:51.114Z,12.63
2018-01-23T17:37:18.686Z,12.63
2018-01-23T17:39:46.320Z,14.03
2018-01-23T17:42:13.877Z,15.20
2018-01-23T17:44:41.475Z,14.80
2018-01-23T17:47:09.075Z,16.43
2018-01-23T17:49:36.700Z,14.40
2018-01-23T17:52:04.260Z,14.87
2018-01-23T17:54:32.602Z,16.57
2018-01-23T17:57:00.217Z,17.63
2018-01-23T17:59:27.772Z,17.73
2018-01-23T18:01:55.343Z,17.17
2018-01-23T18:04:26.773Z,16.87
2018-01-23T18:06:54.353Z,18.57
2018-01-23T18:09:21.970Z,17.07
2018-01-23T18:11:49.560Z,17.10
2018-01-23T18:14:17.127Z,16.33
2018-01-23T18:16:44.727Z,16.67
2018-01-23T18:19:12.316Z,17.40
2018-01-23T18:21:40.016Z,17.77
2018-01-23T18:24:07.582Z,17.67
2018-01-23T18:26:35.215Z,20.47
2018-01-23T18:29:03.588Z,18.33
2018-01-23T18:31:31.280Z,19.70
2018-01-23T18:33:58.974Z,20.00
2018-01-23T18:36:26.549Z,19.43
2018-01-23T18:38:55.293Z,18.67
2018-01-23T18:41:22.916Z,19.73
2018-01-23T18:43:50.505Z,19.30
2018-01-23T18:46:19.122Z,20.53
2018-01-23T18:48:46.697Z,19.73
2018-01-23T18:51:15.103Z,19.17
2018-01-23T18:53:42.889Z,18.87
2018-01-23T18:56:10.560Z,20.00
2018-01-23T18:58:38.479Z,19.90
2018-01-23T19:01:06.122Z,18.27
2018-01-23T19:03:35.001Z,18.33
2018-01-23T19:06:02.614Z,19.80
2018-01-23T19:08:30.345Z,20.80
2018-01-23T19:10:57.948Z,20.00
2018-01-23T19:13:25.637Z,21.07
2018-01-23T19:15:53.425Z,20.60
2018-01-23T19:18:20.982Z,20.57
2018-01-23T19:20:48.714Z,21.67
2018-01-23T19:23:17.045Z,20.67
2018-01-23T19:25:44.678Z,20.03
2018-01-23T19:28:12.261Z,19.23
2018-01-23T19:30:39.821Z,19.77
2018-01-23T19:33:08.220Z,20.93
2018-01-23T19:35:35.865Z,18.53
2018-01-23T19:38:04.166Z,18.93
2018-01-23T19:40:33.235Z,20.33
2018-01-23T19:43:02.431Z,21.47
2018-01-23T19:45:30.233Z,21.17
2018-01-23T19:47:57.794Z,21.53
2018-01-23T19:50:25.398Z,21.40
2018-01-23T19:52:52.952Z,21.73
2018-01-23T19:55:20.562Z,22.30
2018-01-23T19:57:48.137Z,21.93
2018-01-23T20:00:15.729Z,22.80
2018-01-23T20:02:44.094Z,23.63
2018-01-23T20:05:12.487Z,24.97
2018-01-23T20:07:40.827Z,25.87
2018-01-23T20:10:08.384Z,25.77
2018-01-23T20:12:35.987Z,25.47
2018-01-23T20:15:04.315Z,25.83
2018-01-23T20:17:31.912Z,25.40
2018-01-23T20:20:00.280Z,25.87
2018-01-23T20:22:27.912Z,26.60
2018-01-23T20:24:55.514Z,27.20
2018-01-23T20:27:23.861Z,27.33
2018-01-23T20:29:51.452Z,26.87
2018-01-23T20:32:19.010Z,28.30
2018-01-23T20:34:46.605Z,29.23
2018-01-23T20:37:14.232Z,27.63
2018-01-23T20:39:41.829Z,28.43
2018-01-23T20:42:09.415Z,29.37
2018-01-23T20:44:37.361Z,29.23
2018-01-23T20:47:04.966Z,29.93
2018-01-23T20:49:32.521Z,28.50
2018-01-23T20:52:00.116Z,28.83
2018-01-23T20:54:27.713Z,30.67
2018-01-23T20:56:55.278Z,30.80
2018-01-23T20:59:22.988Z,32.00
2018-01-23T21:01:50.576Z,29.63
2018-01-23T21:04:18.138Z,32.03
2018-01-23T21:06:45.746Z,29.90
2018-01-23T21:09:13.308Z,31.27
2018-01-23T21:11:40.921Z,30.90
2018-01-23T21:14:08.510Z,29.80
2018-01-23T21:16:36.110Z,30.30
2018-01-23T21:19:03.718Z,32.63
2018-01-23T21:21:31.290Z,30.97
2018-01-23T21:23:58.869Z,30.20
2018-01-23T21:26:26.486Z,30.30
2018-01-23T21:28:54.065Z,30.53
2018-01-23T21:31:21.629Z,31.57
2018-01-23T21:33:49.223Z,32.87
2018-01-23T21:36:16.836Z,31.33
2018-01-23T21:38:44.393Z,31.13
2018-01-23T21:41:12.010Z,31.17
2018-01-23T21:43:39.670Z,31.43
2018-01-23T21:48:41.050Z,28.13
2018-01-23T21:51:08.607Z,29.23
2018-01-23T21:53:36.283Z,28.47
2018-01-23T21:58:34.158Z,26.90
2018-01-23T22:01:01.737Z,26.67
2018-01-23T22:03:30.108Z,28.43
2018-01-23T22:05:57.872Z,26.30
2018-01-23T22:08:26.172Z,24.40
2018-01-23T22:10:53.959Z,27.50
2018-01-23T22:13:21.544Z,27.50
2018-01-23T22:15:49.113Z,27.40
2018-01-23T22:18:16.711Z,27.27
2018-01-23T22:20:44.307Z,28.70
2018-01-23T22:23:11.910Z,28.53
2018-01-23T22:25:39.477Z,28.37
2018-01-23T22:28:07.092Z,28.73
2018-01-23T22:30:34.688Z,27.93
2018-01-23T22:33:02.258Z,29.53
2018-01-23T22:35:30.728Z,31.60
2018-01-23T22:37:58.286Z,32.03
2018-01-23T22:40:25.910Z,30.93
2018-01-23T22:42:53.557Z,32.30
2018-01-23T22:45:21.332Z,33.57
2018-01-23T22:47:49.057Z,33.77
2018-01-23T22:50:16.654Z,32.63
2018-01-23T22:52:44.408Z,34.63
2018-01-23T22:55:12.733Z,33.60
2018-01-23T22:57:40.535Z,33.67
2018-01-23T23:00:08.170Z,33.23
2018-01-23T23:02:36.756Z,30.93
2018-01-23T23:05:04.329Z,31.77
2018-01-23T23:07:32.084Z,32.27
2018-01-23T23:09:59.651Z,31.00
2018-01-23T23:12:27.313Z,31.07
2018-01-23T23:14:55.025Z,29.40
2018-01-23T23:17:22.592Z,30.70
2018-01-23T23:19:50.203Z,31.53
2018-01-23T23:22:17.759Z,31.37
2018-01-23T23:24:45.465Z,32.90
2018-01-23T23:27:13.278Z,33.00
2018-01-23T23:29:40.895Z,32.37
2018-01-23T23:32:08.602Z,32.20
2018-01-23T23:34:36.159Z,30.80
2018-01-23T23:37:03.833Z,31.10
2018-01-23T23:39:31.394Z,30.60
2018-01-23T23:41:59.008Z,32.40
2018-01-23T23:44:26.571Z,32.47
2018-01-23T23:46:54.137Z,31.90
2018-01-23T23:49:21.750Z,31.43
2018-01-23T23:51:49.310Z,31.17
2018-01-23T23:54:16.914Z,29.63
2018-01-23T23:56:44.525Z,29.03
2018-01-23T23:59:12.122Z,29.90
